createdAt,value
2023-01-08T00:00:04.353Z,7.90
2023-01-08T00:01:04.252Z,7.30
2023-01-08T00:02:04.394Z,5.00
2023-01-08T00:03:04.370Z,6.60
2023-01-08T00:04:04.245Z,5.50
2023-01-08T00:05:05.204Z,5.40
2023-01-08T00:06:04.188Z,5.80
2023-01-08T00:07:04.159Z,6.40
2023-01-08T00:08:04.157Z,6.30
2023-01-08T00:09:04.186Z,7.20
2023-01-08T00:10:04.127Z,6.80
2023-01-08T00:11:04.107Z,6.80
2023-01-08T00:12:04.103Z,8.40
2023-01-08T00:13:04.128Z,8.30
2023-01-08T00:14:04.187Z,5.50
2023-01-08T00:15:04.057Z,5.40
2023-01-08T00:16:04.051Z,7.00
2023-01-08T00:17:04.022Z,10.60
2023-01-08T00:18:05.958Z,7.70
2023-01-08T00:19:04.019Z,7.50
2023-01-08T00:20:04.003Z,8.60
2023-01-08T00:21:04.015Z,7.50
2023-01-08T00:22:04.005Z,7.90
2023-01-08T00:23:03.980Z,7.20
2023-01-08T00:24:04.027Z,8.30
2023-01-08T00:25:03.955Z,7.30
2023-01-08T00:26:03.977Z,7.70
2023-01-08T00:27:03.948Z,9.50
2023-01-08T00:28:03.937Z,7.40
2023-01-08T00:29:04.898Z,9.30
2023-01-08T00:30:03.895Z,5.60
2023-01-08T00:31:04.052Z,8.90
2023-01-08T00:32:03.901Z,7.50
2023-01-08T00:33:03.870Z,8.60
2023-01-08T00:34:03.929Z,7.00
2023-01-08T00:35:03.828Z,9.40
2023-01-08T00:36:03.872Z,9.60
2023-01-08T00:37:03.821Z,6.00
2023-01-08T00:38:03.810Z,9.30
2023-01-08T00:39:03.823Z,8.80
2023-01-08T00:40:03.781Z,8.30
2023-01-08T00:41:03.795Z,7.00
2023-01-08T00:42:03.784Z,6.50
2023-01-08T00:43:03.781Z,5.90
2023-01-08T00:44:03.773Z,6.30
2023-01-08T00:45:03.711Z,9.10
2023-01-08T00:46:03.844Z,7.80
2023-01-08T00:47:03.756Z,9.50
2023-01-08T00:48:03.732Z,7.80
2023-01-08T00:49:03.692Z,8.10
2023-01-08T00:50:04.287Z,7.50
2023-01-08T00:51:03.674Z,9.70
2023-01-08T00:52:03.945Z,6.50
2023-01-08T00:53:03.653Z,8.20
2023-01-08T00:54:03.656Z,8.00
2023-01-08T00:55:03.611Z,6.80
2023-01-08T00:56:03.602Z,9.30
2023-01-08T00:57:04.687Z,7.00
2023-01-08T00:58:03.599Z,7.80
2023-01-08T00:59:03.587Z,5.60
2023-01-08T01:00:03.555Z,5.40
2023-01-08T01:01:03.591Z,5.90
2023-01-08T01:02:03.716Z,10.00
2023-01-08T01:03:03.579Z,6.20
2023-01-08T01:04:03.627Z,8.00
2023-01-08T01:05:03.506Z,6.10
2023-01-08T01:06:03.512Z,6.70
2023-01-08T01:07:03.537Z,7.50
2023-01-08T01:08:03.514Z,6.20
2023-01-08T01:09:03.502Z,6.90
2023-01-08T01:10:03.456Z,7.10
2023-01-08T01:11:03.507Z,7.50
2023-01-08T01:12:03.454Z,9.80
2023-01-08T01:13:03.452Z,5.60
2023-01-08T01:14:03.418Z,6.40
2023-01-08T01:15:03.432Z,9.50
2023-01-08T01:16:03.399Z,7.90
2023-01-08T01:17:03.493Z,7.10
2023-01-08T01:18:03.444Z,6.00
2023-01-08T01:19:03.404Z,6.40
2023-01-08T01:20:03.362Z,7.90
2023-01-08T01:21:03.345Z,8.80
2023-01-08T01:22:03.409Z,7.20
2023-01-08T01:23:03.314Z,7.30
2023-01-08T01:24:03.319Z,7.60
2023-01-08T01:25:03.277Z,7.10
2023-01-08T01:26:04.297Z,6.90
2023-01-08T01:27:03.349Z,7.20
2023-01-08T01:28:03.304Z,7.80
2023-01-08T01:29:03.263Z,7.20
2023-01-08T01:30:03.279Z,8.30
2023-01-08T01:31:03.259Z,6.80
2023-01-08T01:32:03.224Z,5.60
2023-01-08T01:33:03.249Z,6.60
2023-01-08T01:34:03.237Z,6.20
2023-01-08T01:35:03.227Z,7.10
2023-01-08T01:36:03.298Z,7.60
2023-01-08T01:37:03.214Z,6.60
2023-01-08T01:38:03.165Z,6.30
2023-01-08T01:39:03.203Z,8.40
2023-01-08T01:40:03.129Z,8.50
2023-01-08T01:41:03.108Z,9.40
2023-01-08T01:42:03.136Z,6.20
2023-01-08T01:43:03.113Z,7.60
2023-01-08T01:44:03.099Z,7.00
2023-01-08T01:45:03.099Z,7.70
2023-01-08T01:46:03.169Z,8.00
2023-01-08T01:47:03.133Z,7.20
2023-01-08T01:48:03.057Z,8.10
2023-01-08T01:49:03.045Z,12.50
2023-01-08T01:50:03.049Z,10.20
2023-01-08T01:51:03.042Z,6.70
2023-01-08T01:52:03.040Z,7.40
2023-01-08T01:53:03.034Z,6.50
2023-01-08T01:54:03.093Z,7.60
2023-01-08T01:55:02.977Z,7.10
2023-01-08T01:56:02.967Z,8.30
2023-01-08T01:57:03.188Z,7.00
2023-01-08T01:58:03.052Z,7.70
2023-01-08T01:59:02.925Z,9.50
2023-01-08T02:00:03.092Z,8.50
2023-01-08T02:01:03.046Z,6.60
2023-01-08T02:02:03.014Z,7.20
2023-01-08T02:03:02.942Z,7.30
2023-01-08T02:04:03.017Z,5.60
2023-01-08T02:05:02.924Z,8.90
2023-01-08T02:06:02.852Z,6.50
2023-01-08T02:07:02.940Z,9.30
2023-01-08T02:08:02.916Z,8.00
2023-01-08T02:09:02.845Z,6.00
2023-01-08T02:10:02.968Z,6.10
2023-01-08T02:11:02.853Z,7.60
2023-01-08T02:12:02.830Z,9.10
2023-01-08T02:13:02.813Z,7.80
2023-01-08T02:14:02.778Z,8.20
2023-01-08T02:15:02.792Z,9.40
2023-01-08T02:16:02.776Z,5.90
2023-01-08T02:17:02.832Z,7.20
2023-01-08T02:18:02.746Z,8.00
2023-01-08T02:19:02.738Z,8.10
2023-01-08T02:20:02.711Z,7.70
2023-01-08T02:21:02.730Z,7.90
2023-01-08T02:22:02.700Z,5.70
2023-01-08T02:23:02.712Z,7.30
2023-01-08T02:24:02.710Z,8.20
2023-01-08T02:25:02.805Z,7.00
2023-01-08T02:26:02.785Z,8.80
2023-01-08T02:27:02.726Z,8.60
2023-01-08T02:28:02.680Z,7.00
2023-01-08T02:29:02.616Z,7.00
2023-01-08T02:30:02.650Z,8.30
2023-01-08T02:31:02.656Z,8.70
2023-01-08T02:32:02.609Z,9.20
2023-01-08T02:33:02.575Z,9.40
2023-01-08T02:34:02.584Z,7.10
2023-01-08T02:35:02.628Z,8.00
2023-01-08T02:36:02.545Z,8.50
2023-01-08T02:37:02.524Z,8.50
2023-01-08T02:38:02.503Z,7.00
2023-01-08T02:39:02.535Z,11.50
2023-01-08T02:40:02.554Z,8.70
2023-01-08T02:41:02.570Z,8.20
2023-01-08T02:42:02.576Z,8.90
2023-01-08T02:43:02.477Z,9.50
2023-01-08T02:44:02.464Z,8.10
2023-01-08T02:45:02.439Z,8.60
2023-01-08T02:46:02.505Z,7.60
2023-01-08T02:47:02.432Z,8.40
2023-01-08T02:48:03.413Z,8.70
2023-01-08T02:49:02.411Z,9.30
2023-01-08T02:50:02.379Z,8.70
2023-01-08T02:51:02.405Z,10.30
2023-01-08T02:52:02.384Z,9.40
2023-01-08T02:53:02.355Z,8.20
2023-01-08T02:54:02.348Z,9.10
2023-01-08T02:55:02.349Z,9.20
2023-01-08T02:56:02.356Z,7.30
2023-01-08T02:57:02.329Z,8.20
2023-01-08T02:58:02.406Z,8.20
2023-01-08T02:59:02.328Z,9.20
2023-01-08T03:00:02.365Z,8.40
2023-01-08T03:01:02.382Z,10.50
2023-01-08T03:02:02.438Z,6.60
2023-01-08T03:03:02.356Z,9.50
2023-01-08T03:04:02.359Z,9.20
2023-01-08T03:05:02.264Z,9.40
2023-01-08T03:06:02.258Z,8.10
2023-01-08T03:07:02.257Z,9.90
2023-01-08T03:08:02.234Z,7.00
2023-01-08T03:09:02.187Z,8.10
2023-01-08T03:10:02.174Z,8.10
2023-01-08T03:11:02.239Z,8.30
2023-01-08T03:12:02.146Z,8.90
2023-01-08T03:13:02.136Z,8.10
2023-01-08T03:14:02.255Z,7.40
2023-01-08T03:15:02.133Z,10.00
2023-01-08T03:16:02.183Z,8.90
2023-01-08T03:17:02.156Z,9.10
2023-01-08T03:18:13.211Z,9.70
2023-01-08T03:19:02.100Z,9.20
2023-01-08T03:20:02.107Z,9.20
2023-01-08T03:21:02.063Z,8.40
2023-01-08T03:22:02.072Z,8.90
2023-01-08T03:23:02.109Z,9.80
2023-01-08T03:24:02.064Z,11.10
2023-01-08T03:25:02.057Z,8.40
2023-01-08T03:26:02.015Z,8.70
2023-01-08T03:27:02.073Z,8.40
2023-01-08T03:28:01.986Z,9.90
2023-01-08T03:29:01.987Z,9.40
2023-01-08T03:30:02.059Z,10.10
2023-01-08T03:31:02.063Z,9.10
2023-01-08T03:32:02.010Z,8.60
2023-01-08T03:33:01.990Z,8.70
2023-01-08T03:34:01.941Z,7.60
2023-01-08T03:35:01.919Z,7.80
2023-01-08T03:36:01.905Z,7.20
2023-01-08T03:37:01.975Z,11.10
2023-01-08T03:38:01.929Z,8.10
2023-01-08T03:39:01.864Z,10.40
2023-01-08T03:40:01.891Z,9.20
2023-01-08T03:41:01.850Z,9.30
2023-01-08T03:42:01.881Z,8.90
2023-01-08T03:43:01.854Z,8.60
2023-01-08T03:44:01.835Z,9.40
2023-01-08T03:45:01.859Z,10.90
2023-01-08T03:46:01.991Z,10.10
2023-01-08T03:47:01.791Z,9.80
2023-01-08T03:48:01.814Z,9.30
2023-01-08T03:49:01.798Z,10.10
2023-01-08T03:50:01.757Z,9.10
2023-01-08T03:51:01.761Z,9.00
2023-01-08T03:52:01.728Z,8.80
2023-01-08T03:53:01.739Z,9.00
2023-01-08T03:54:01.731Z,10.20
2023-01-08T03:55:01.721Z,10.90
2023-01-08T03:56:01.692Z,9.80
2023-01-08T03:57:01.714Z,8.90
2023-01-08T03:58:01.737Z,11.60
2023-01-08T03:59:01.669Z,9.80
2023-01-08T04:00:01.656Z,10.40
2023-01-08T04:01:01.679Z,10.50
2023-01-08T04:02:01.861Z,10.90
2023-01-08T04:03:03.222Z,9.20
2023-01-08T04:04:01.657Z,10.30
2023-01-08T04:05:01.679Z,10.30
2023-01-08T04:06:01.591Z,13.20
2023-01-08T04:07:01.624Z,11.10
2023-01-08T04:08:01.590Z,11.00
2023-01-08T04:09:01.593Z,11.10
2023-01-08T04:10:01.554Z,10.80
2023-01-08T04:11:01.558Z,9.80
2023-01-08T04:12:01.575Z,11.20
2023-01-08T04:13:01.509Z,10.20
2023-01-08T04:14:01.528Z,10.70
2023-01-08T04:15:01.479Z,12.40
2023-01-08T04:16:01.547Z,8.80
2023-01-08T04:17:01.469Z,10.20
2023-01-08T04:18:01.551Z,10.90
2023-01-08T04:19:01.497Z,9.40
2023-01-08T04:20:01.435Z,10.50
2023-01-08T04:21:01.433Z,13.10
2023-01-08T04:22:01.407Z,8.90
2023-01-08T04:23:01.421Z,11.00
2023-01-08T04:24:01.421Z,11.30
2023-01-08T04:25:01.395Z,9.70
2023-01-08T04:26:01.383Z,12.30
2023-01-08T04:27:01.376Z,11.10
2023-01-08T04:28:01.474Z,12.00
2023-01-08T04:29:01.349Z,10.60
2023-01-08T04:30:01.385Z,11.30
2023-01-08T04:31:01.454Z,11.50
2023-01-08T04:32:01.324Z,13.90
2023-01-08T04:33:01.297Z,11.20
2023-01-08T04:34:01.293Z,12.90
2023-01-08T04:35:01.309Z,14.80
2023-01-08T04:36:01.302Z,15.10
2023-01-08T04:37:01.274Z,10.70
2023-01-08T04:38:01.246Z,13.10
2023-01-08T04:39:01.264Z,15.50
2023-01-08T04:40:01.225Z,14.40
2023-01-08T04:41:01.261Z,14.10
2023-01-08T04:42:01.280Z,11.60
2023-01-08T04:43:01.222Z,12.40
2023-01-08T04:44:01.218Z,13.70
2023-01-08T04:45:01.195Z,15.40
2023-01-08T04:46:01.231Z,14.50
2023-01-08T04:47:01.360Z,14.00
2023-01-08T04:48:01.226Z,14.80
2023-01-08T04:49:01.148Z,13.60
2023-01-08T04:50:01.295Z,17.10
2023-01-08T04:51:01.187Z,12.30
2023-01-08T04:52:01.093Z,14.20
2023-01-08T04:53:01.102Z,16.30
2023-01-08T04:54:01.169Z,13.40
2023-01-08T04:55:01.084Z,14.10
2023-01-08T04:56:01.058Z,14.60
2023-01-08T04:57:01.069Z,13.00
2023-01-08T04:58:01.064Z,13.60
2023-01-08T04:59:01.082Z,16.10
2023-01-08T05:00:01.034Z,17.80
2023-01-08T05:01:01.157Z,14.80
2023-01-08T05:02:01.100Z,17.30
2023-01-08T05:03:01.090Z,18.00
2023-01-08T05:04:00.997Z,16.50
2023-01-08T05:05:01.061Z,17.50
2023-01-08T05:06:01.075Z,16.30
2023-01-08T05:07:00.954Z,19.20
2023-01-08T05:08:00.950Z,16.50
2023-01-08T05:09:00.918Z,17.00
2023-01-08T05:10:01.093Z,16.80
2023-01-08T05:11:00.910Z,17.60
2023-01-08T05:12:00.901Z,15.00
2023-01-08T05:13:00.944Z,15.70
2023-01-08T05:14:00.877Z,15.50
2023-01-08T05:15:00.852Z,19.30
2023-01-08T05:16:01.021Z,16.90
2023-01-08T05:17:00.844Z,17.00
2023-01-08T05:18:00.857Z,19.00
2023-01-08T05:19:00.831Z,16.80
2023-01-08T05:20:00.791Z,17.00
2023-01-08T05:21:00.839Z,19.30
2023-01-08T05:22:00.865Z,17.50
2023-01-08T05:23:00.779Z,18.80
2023-01-08T05:24:00.751Z,19.00
2023-01-08T05:25:00.738Z,19.50
2023-01-08T05:26:00.723Z,19.70
2023-01-08T05:27:00.761Z,17.60
2023-01-08T05:28:00.702Z,16.90
2023-01-08T05:29:00.709Z,15.40
2023-01-08T05:30:00.687Z,19.40
2023-01-08T05:31:00.766Z,19.20
2023-01-08T05:32:00.677Z,21.40
2023-01-08T05:33:00.667Z,18.10
2023-01-08T05:34:00.643Z,21.30
2023-01-08T05:35:00.627Z,19.60
2023-01-08T05:36:00.622Z,22.00
2023-01-08T05:37:00.624Z,19.90
2023-01-08T05:38:00.747Z,21.00
2023-01-08T05:39:00.600Z,20.50
2023-01-08T05:40:00.576Z,20.60
2023-01-08T05:41:00.555Z,19.60
2023-01-08T05:42:00.567Z,20.80
2023-01-08T05:43:00.538Z,22.40
2023-01-08T05:44:00.544Z,19.30
2023-01-08T05:45:00.530Z,21.20
2023-01-08T05:46:00.575Z,21.10
2023-01-08T05:47:00.494Z,22.10
2023-01-08T05:48:01.493Z,22.50
2023-01-08T05:49:00.481Z,21.10
2023-01-08T05:50:00.553Z,24.10
2023-01-08T05:51:00.471Z,24.40
2023-01-08T05:52:00.458Z,21.80
2023-01-08T05:53:01.442Z,22.00
2023-01-08T05:54:00.528Z,20.40
2023-01-08T05:55:00.414Z,20.40
2023-01-08T05:56:00.409Z,21.60
2023-01-08T05:57:00.440Z,22.30
2023-01-08T05:58:00.419Z,18.60
2023-01-08T05:59:00.375Z,19.80
2023-01-08T06:00:00.358Z,22.90
2023-01-08T06:01:00.359Z,19.20
2023-01-08T06:02:00.319Z,25.60
2023-01-08T06:03:00.438Z,23.90
2023-01-08T06:04:00.358Z,23.60
2023-01-08T06:05:00.321Z,22.10
2023-01-08T06:06:00.289Z,21.10
2023-01-08T06:07:00.318Z,21.30
2023-01-08T06:08:00.294Z,22.80
2023-01-08T06:09:00.259Z,23.80
2023-01-08T06:10:00.374Z,23.60
2023-01-08T06:11:00.243Z,22.50
2023-01-08T06:12:00.226Z,17.50
2023-01-08T06:13:00.247Z,24.50
2023-01-08T06:14:00.208Z,22.90
2023-01-08T06:15:00.200Z,19.90
2023-01-08T06:16:00.313Z,20.70
2023-01-08T06:17:00.167Z,22.20
2023-01-08T06:18:00.201Z,20.30
2023-01-08T06:19:00.149Z,22.40
2023-01-08T06:20:00.186Z,17.20
2023-01-08T06:21:00.127Z,21.50
2023-01-08T06:22:00.172Z,21.50
2023-01-08T06:23:00.144Z,21.00
2023-01-08T06:24:00.148Z,19.70
2023-01-08T06:25:00.141Z,20.20
2023-01-08T06:26:00.189Z,24.90
2023-01-08T06:27:00.156Z,18.90
2023-01-08T06:28:00.082Z,21.10
2023-01-08T06:29:00.100Z,19.00
2023-01-08T06:30:00.037Z,21.20
2023-01-08T06:31:00.186Z,23.90
2023-01-08T06:32:00.049Z,22.40
2023-01-08T06:33:00.010Z,18.70
2023-01-08T06:34:00.033Z,21.20
2023-01-08T06:35:00.027Z,20.20
2023-01-08T06:35:59.996Z,21.00
2023-01-08T06:36:59.991Z,21.50
2023-01-08T06:38:00.102Z,19.90
2023-01-08T06:38:59.968Z,22.60
2023-01-08T06:39:59.954Z,19.40
2023-01-08T06:40:59.914Z,21.30
2023-01-08T06:41:59.998Z,18.50
2023-01-08T06:42:59.919Z,23.70
2023-01-08T06:43:59.888Z,21.20
2023-01-08T06:44:59.898Z,20.30
2023-01-08T06:45:59.876Z,22.00
2023-01-08T06:46:59.861Z,21.30
2023-01-08T06:47:59.871Z,17.30
2023-01-08T06:48:59.838Z,18.90
2023-01-08T06:49:59.848Z,20.70
2023-01-08T06:50:59.912Z,14.60
2023-01-08T06:51:59.832Z,17.90
2023-01-08T06:52:59.816Z,17.80
2023-01-08T06:53:59.767Z,16.60
2023-01-08T06:54:59.867Z,17.30
2023-01-08T06:55:59.792Z,16.30
2023-01-08T06:56:59.787Z,17.10
2023-01-08T06:57:59.824Z,15.40
2023-01-08T06:58:59.736Z,18.70
2023-01-08T06:59:59.720Z,16.00
2023-01-08T07:00:59.731Z,14.90
2023-01-08T07:01:59.951Z,18.30
2023-01-08T07:02:59.801Z,12.40
2023-01-08T07:03:59.673Z,12.00
2023-01-08T07:04:59.689Z,14.80
2023-01-08T07:05:59.663Z,16.20
2023-01-08T07:06:59.627Z,15.70
2023-01-08T07:07:59.790Z,11.60
2023-01-08T07:08:59.629Z,13.00
2023-01-08T07:09:59.614Z,12.10
2023-01-08T07:10:59.607Z,14.20
2023-01-08T07:11:59.580Z,13.20
2023-01-08T07:12:59.612Z,14.70
2023-01-08T07:13:59.646Z,10.90
2023-01-08T07:14:59.559Z,13.30
2023-01-08T07:15:59.590Z,13.20
2023-01-08T07:16:59.546Z,11.70
2023-01-08T07:17:59.545Z,12.20
2023-01-08T07:18:59.509Z,12.80
2023-01-08T07:19:59.493Z,10.00
2023-01-08T07:20:59.517Z,10.30
2023-01-08T07:21:59.456Z,10.70
2023-01-08T07:22:59.453Z,13.00
2023-01-08T07:23:59.594Z,10.80
2023-01-08T07:24:59.460Z,8.40
2023-01-08T07:25:59.444Z,9.90
2023-01-08T07:26:59.446Z,11.00
2023-01-08T07:27:59.436Z,9.40
2023-01-08T07:28:59.394Z,12.20
2023-01-08T07:29:59.492Z,12.10
2023-01-08T07:30:59.421Z,10.80
2023-01-08T07:31:59.398Z,10.20
2023-01-08T07:32:59.379Z,10.50
2023-01-08T07:33:59.378Z,10.90
2023-01-08T07:34:59.361Z,11.50
2023-01-08T07:35:59.414Z,12.00
2023-01-08T07:36:59.305Z,11.40
2023-01-08T07:37:59.345Z,10.80
2023-01-08T07:38:59.333Z,12.90
2023-01-08T07:39:59.272Z,11.40
2023-01-08T07:40:59.273Z,11.90
2023-01-08T07:41:59.281Z,10.90
2023-01-08T07:42:59.314Z,12.30
2023-01-08T07:43:59.293Z,11.30
2023-01-08T07:44:59.217Z,13.80
2023-01-08T07:45:59.214Z,12.80
2023-01-08T07:46:59.211Z,11.60
2023-01-08T07:47:59.249Z,13.50
2023-01-08T07:48:59.196Z,14.40
2023-01-08T07:49:59.201Z,12.40
2023-01-08T07:50:59.165Z,13.40
2023-01-08T07:51:59.153Z,12.80
2023-01-08T07:52:59.140Z,12.20
2023-01-08T07:53:59.165Z,13.50
2023-01-08T07:54:59.106Z,16.10
2023-01-08T07:55:59.124Z,15.30
2023-01-08T07:56:59.085Z,15.30
2023-01-08T07:57:59.126Z,13.90
2023-01-08T07:58:59.098Z,13.00
2023-01-08T07:59:59.058Z,13.60
2023-01-08T08:00:59.397Z,14.10
2023-01-08T08:02:00.350Z,11.70
2023-01-08T08:02:59.199Z,12.60
2023-01-08T08:03:59.046Z,15.30
2023-01-08T08:04:59.029Z,14.00
2023-01-08T08:05:58.990Z,12.40
2023-01-08T08:06:58.978Z,16.60
2023-01-08T08:07:59.000Z,13.10
2023-01-08T08:08:58.965Z,15.50
2023-01-08T08:09:58.958Z,14.40
2023-01-08T08:10:59.024Z,15.80
2023-01-08T08:11:58.935Z,13.00
2023-01-08T08:12:58.911Z,13.20
2023-01-08T08:13:58.897Z,17.90
2023-01-08T08:14:58.915Z,13.90
2023-01-08T08:15:58.902Z,12.50
2023-01-08T08:16:58.892Z,14.20
2023-01-08T08:17:58.945Z,16.30
2023-01-08T08:18:58.879Z,15.00
2023-01-08T08:19:58.861Z,13.60
2023-01-08T08:20:58.829Z,14.10
2023-01-08T08:21:58.832Z,17.60
2023-01-08T08:22:58.818Z,15.60
2023-01-08T08:23:58.797Z,18.50
2023-01-08T08:24:58.770Z,16.10
2023-01-08T08:25:58.792Z,13.60
2023-01-08T08:26:58.775Z,17.20
2023-01-08T08:27:58.779Z,17.00
2023-01-08T08:28:58.723Z,14.20
2023-01-08T08:29:58.714Z,15.50
2023-01-08T08:30:58.749Z,17.10
2023-01-08T08:31:58.709Z,16.70
2023-01-08T08:32:58.814Z,18.70
2023-01-08T08:33:58.782Z,18.00
2023-01-08T08:34:58.662Z,15.80
2023-01-08T08:35:58.653Z,16.30
2023-01-08T08:36:58.642Z,15.90
2023-01-08T08:37:58.646Z,14.50
2023-01-08T08:38:58.666Z,12.90
2023-01-08T08:39:58.615Z,16.80
2023-01-08T08:40:58.621Z,18.30
2023-01-08T08:41:58.587Z,19.40
2023-01-08T08:42:58.634Z,15.20
2023-01-08T08:43:58.580Z,15.80
2023-01-08T08:44:58.559Z,15.50
2023-01-08T08:45:58.566Z,14.80
2023-01-08T08:46:58.610Z,14.10
2023-01-08T08:47:58.508Z,13.50
2023-01-08T08:48:58.529Z,14.80
2023-01-08T08:49:58.635Z,16.00
2023-01-08T08:50:58.547Z,12.50
2023-01-08T08:51:58.484Z,11.90
2023-01-08T08:52:58.470Z,15.90
2023-01-08T08:53:58.466Z,15.80
2023-01-08T08:54:58.443Z,10.80
2023-01-08T08:55:58.657Z,12.00
2023-01-08T08:56:58.410Z,16.00
2023-01-08T08:57:58.443Z,15.70
2023-01-08T08:58:58.414Z,12.80
2023-01-08T09:00:00.891Z,14.20
2023-01-08T09:00:58.389Z,12.90
2023-01-08T09:01:58.453Z,11.40
2023-01-08T09:02:59.461Z,13.10
2023-01-08T09:03:58.380Z,11.70
2023-01-08T09:04:58.349Z,11.90
2023-01-08T09:05:59.852Z,10.90
2023-01-08T09:06:59.322Z,12.20
2023-01-08T09:07:58.325Z,11.50
2023-01-08T09:08:58.297Z,13.00
2023-01-08T09:09:58.316Z,14.50
2023-01-08T09:10:58.275Z,13.30
2023-01-08T09:11:58.281Z,11.80
2023-01-08T09:12:58.250Z,10.70
2023-01-08T09:13:58.321Z,9.90
2023-01-08T09:14:58.239Z,10.80
2023-01-08T09:15:58.311Z,9.60
2023-01-08T09:16:58.221Z,11.90
2023-01-08T09:17:58.208Z,9.30
2023-01-08T09:18:58.181Z,12.90
2023-01-08T09:19:58.180Z,9.60
2023-01-08T09:20:58.174Z,11.60
2023-01-08T09:21:58.243Z,11.80
2023-01-08T09:22:58.168Z,12.10
2023-01-08T09:23:58.154Z,8.80
2023-01-08T09:24:58.139Z,8.90
2023-01-08T09:25:58.097Z,8.70
2023-01-08T09:26:58.129Z,9.60
2023-01-08T09:27:58.124Z,9.20
2023-01-08T09:28:58.078Z,10.20
2023-01-08T09:29:58.058Z,10.90
2023-01-08T09:30:58.043Z,9.60
2023-01-08T09:31:58.093Z,11.40
2023-01-08T09:32:59.242Z,9.90
2023-01-08T09:33:58.014Z,14.30
2023-01-08T09:34:58.056Z,10.00
2023-01-08T09:35:58.015Z,10.00
2023-01-08T09:36:58.001Z,10.50
2023-01-08T09:37:58.082Z,13.90
2023-01-08T09:38:58.029Z,12.90
2023-01-08T09:40:02.417Z,12.30
2023-01-08T09:40:58.938Z,11.40
2023-01-08T09:41:57.951Z,11.00
2023-01-08T09:42:57.968Z,9.40
2023-01-08T09:43:57.957Z,11.80
2023-01-08T09:44:57.913Z,10.60
2023-01-08T09:45:57.878Z,12.50
2023-01-08T09:46:57.957Z,12.70
2023-01-08T09:47:57.889Z,14.40
2023-01-08T09:48:57.863Z,11.20
2023-01-08T09:49:57.843Z,10.80
2023-01-08T09:50:57.884Z,11.00
2023-01-08T09:51:57.834Z,12.30
2023-01-08T09:52:57.896Z,11.10
2023-01-08T09:53:57.930Z,9.00
2023-01-08T09:54:57.848Z,13.30
2023-01-08T09:56:08.989Z,14.00
2023-01-08T09:56:59.773Z,15.70
2023-01-08T09:57:57.800Z,11.70
2023-01-08T09:58:57.785Z,13.40
2023-01-08T09:59:57.750Z,11.60
2023-01-08T10:00:57.776Z,11.50
2023-01-08T10:01:57.891Z,12.10
2023-01-08T10:02:57.871Z,14.10
2023-01-08T10:03:57.788Z,14.00
2023-01-08T10:04:57.755Z,13.10
2023-01-08T10:05:57.684Z,14.00
2023-01-08T10:06:57.687Z,12.00
2023-01-08T10:07:57.699Z,12.50
2023-01-08T10:08:57.689Z,11.60
2023-01-08T10:09:57.734Z,13.70
2023-01-08T10:10:57.630Z,14.60
2023-01-08T10:11:57.664Z,13.50
2023-01-08T10:12:57.627Z,12.10
2023-01-08T10:13:57.632Z,13.30
2023-01-08T10:14:57.627Z,15.10
2023-01-08T10:15:57.619Z,13.20
2023-01-08T10:16:57.665Z,12.70
2023-01-08T10:17:58.103Z,13.10
2023-01-08T10:18:57.688Z,12.30
2023-01-08T10:19:57.553Z,12.40
2023-01-08T10:20:57.871Z,12.40
2023-01-08T10:21:57.767Z,10.30
2023-01-08T10:22:57.686Z,11.60
2023-01-08T10:23:57.750Z,11.30
2023-01-08T10:24:57.628Z,11.00
2023-01-08T10:25:57.586Z,12.00
2023-01-08T10:26:57.470Z,10.80
2023-01-08T10:27:57.479Z,9.30
2023-01-08T10:28:57.780Z,11.10
2023-01-08T10:29:57.444Z,10.20
2023-01-08T10:30:57.448Z,8.70
2023-01-08T10:31:57.428Z,9.30
2023-01-08T10:32:57.432Z,9.20
2023-01-08T10:33:57.445Z,9.80
2023-01-08T10:34:57.447Z,9.60
2023-01-08T10:35:57.425Z,9.10
2023-01-08T10:36:57.757Z,8.60
2023-01-08T10:37:57.515Z,8.50
2023-01-08T10:38:57.839Z,12.30
2023-01-08T10:39:57.314Z,8.60
2023-01-08T10:40:57.339Z,9.10
2023-01-08T10:41:57.420Z,7.40
2023-01-08T10:42:59.322Z,7.00
2023-01-08T10:43:57.331Z,8.00
2023-01-08T10:44:57.402Z,8.20
2023-01-08T10:45:57.302Z,9.10
2023-01-08T10:46:57.254Z,6.40
2023-01-08T10:47:57.236Z,8.00
2023-01-08T10:48:57.230Z,9.50
2023-01-08T10:49:57.224Z,11.10
2023-01-08T10:50:57.348Z,8.70
2023-01-08T10:51:57.194Z,10.30
2023-01-08T10:52:57.230Z,7.40
2023-01-08T10:53:57.200Z,10.90
2023-01-08T10:54:57.162Z,8.40
2023-01-08T10:55:57.208Z,9.00
2023-01-08T10:56:57.217Z,7.90
2023-01-08T10:57:57.206Z,5.90
2023-01-08T10:58:57.168Z,7.30
2023-01-08T10:59:57.165Z,9.60
2023-01-08T11:00:57.156Z,6.00
2023-01-08T11:01:57.243Z,7.90
2023-01-08T11:02:57.083Z,8.40
2023-01-08T11:03:57.085Z,7.40
2023-01-08T11:04:57.086Z,7.80
2023-01-08T11:05:57.049Z,7.10
2023-01-08T11:06:57.035Z,6.20
2023-01-08T11:07:57.030Z,5.30
2023-01-08T11:08:57.006Z,6.10
2023-01-08T11:09:57.040Z,7.80
2023-01-08T11:10:56.987Z,5.00
2023-01-08T11:11:56.983Z,6.30
2023-01-08T11:12:56.968Z,8.60
2023-01-08T11:13:56.960Z,5.60
2023-01-08T11:14:56.956Z,6.50
2023-01-08T11:15:57.029Z,8.10
2023-01-08T11:16:56.935Z,7.60
2023-01-08T11:17:56.919Z,5.80
2023-01-08T11:18:56.945Z,6.30
2023-01-08T11:19:56.898Z,6.00
2023-01-08T11:20:56.871Z,6.50
2023-01-08T11:21:56.911Z,6.30
2023-01-08T11:22:56.875Z,7.40
2023-01-08T11:23:56.872Z,6.60
2023-01-08T11:24:56.872Z,7.90
2023-01-08T11:25:56.831Z,8.20
2023-01-08T11:26:56.819Z,6.50
2023-01-08T11:27:56.820Z,7.50
2023-01-08T11:28:56.828Z,6.90
2023-01-08T11:29:56.803Z,6.30
2023-01-08T11:30:56.773Z,5.80
2023-01-08T11:31:56.794Z,5.60
2023-01-08T11:32:56.788Z,8.50
2023-01-08T11:33:56.748Z,7.00
2023-01-08T11:34:56.758Z,5.40
2023-01-08T11:35:56.723Z,6.10
2023-01-08T11:36:56.724Z,7.80
2023-01-08T11:37:56.732Z,7.30
2023-01-08T11:38:56.693Z,6.90
2023-01-08T11:39:56.726Z,7.20
2023-01-08T11:40:56.670Z,5.10
2023-01-08T11:41:56.682Z,7.30
2023-01-08T11:42:56.650Z,8.50
2023-01-08T11:43:56.638Z,6.60
2023-01-08T11:44:56.677Z,5.20
2023-01-08T11:45:56.689Z,6.80
2023-01-08T11:46:56.610Z,5.90
2023-01-08T11:47:56.605Z,5.90
2023-01-08T11:48:56.578Z,5.20
2023-01-08T11:49:56.589Z,8.00
2023-01-08T11:50:56.583Z,5.00
2023-01-08T11:51:56.621Z,5.40
2023-01-08T11:52:56.547Z,6.40
2023-01-08T11:53:56.537Z,5.80
2023-01-08T11:54:56.520Z,6.40
2023-01-08T11:55:56.510Z,4.80
2023-01-08T11:56:56.513Z,7.00
2023-01-08T11:57:56.524Z,5.60
2023-01-08T11:58:56.490Z,5.20
2023-01-08T11:59:56.468Z,4.50
2023-01-08T12:00:56.446Z,3.80
2023-01-08T12:01:56.637Z,4.60
2023-01-08T12:02:56.569Z,6.50
2023-01-08T12:03:56.507Z,6.50
2023-01-08T12:04:56.426Z,4.80
2023-01-08T12:05:56.448Z,6.10
2023-01-08T12:06:56.431Z,4.40
2023-01-08T12:07:56.428Z,5.40
2023-01-08T12:08:56.422Z,5.40
2023-01-08T12:09:56.395Z,3.80
2023-01-08T12:10:56.367Z,5.50
2023-01-08T12:11:56.372Z,4.40
2023-01-08T12:12:56.375Z,5.40
2023-01-08T12:13:56.356Z,3.60
2023-01-08T12:14:56.357Z,4.50
2023-01-08T12:15:56.325Z,3.90
2023-01-08T12:16:56.325Z,5.10
2023-01-08T12:17:56.290Z,4.00
2023-01-08T12:18:56.323Z,4.30
2023-01-08T12:19:56.283Z,6.00
2023-01-08T12:20:56.249Z,4.60
2023-01-08T12:21:56.243Z,6.20
2023-01-08T12:22:56.243Z,4.70
2023-01-08T12:23:56.230Z,4.60
2023-01-08T12:24:56.248Z,7.30
2023-01-08T12:25:56.212Z,3.80
2023-01-08T12:26:56.259Z,3.50
2023-01-08T12:27:57.442Z,6.10
2023-01-08T12:28:57.176Z,4.00
2023-01-08T12:29:56.208Z,6.40
2023-01-08T12:30:56.179Z,4.90
2023-01-08T12:32:02.556Z,5.70
2023-01-08T12:32:57.144Z,4.10
2023-01-08T12:33:56.153Z,4.80
2023-01-08T12:34:56.169Z,6.60
2023-01-08T12:35:56.152Z,3.20
2023-01-08T12:36:56.113Z,3.00
2023-01-08T12:37:56.121Z,3.70
2023-01-08T12:38:56.078Z,5.60
2023-01-08T12:39:56.096Z,3.40
2023-01-08T12:40:56.069Z,3.20
2023-01-08T12:41:56.097Z,3.50
2023-01-08T12:43:01.070Z,3.30
2023-01-08T12:43:58.060Z,3.30
2023-01-08T12:44:56.045Z,4.40
2023-01-08T12:45:56.028Z,3.40
2023-01-08T12:46:56.069Z,3.40
2023-01-08T12:47:56.013Z,2.60
2023-01-08T12:48:56.260Z,6.50
2023-01-08T12:49:55.995Z,4.70
2023-01-08T12:50:56.003Z,3.30
2023-01-08T12:51:56.061Z,5.50
2023-01-08T12:52:55.941Z,4.30
2023-01-08T12:53:55.950Z,2.80
2023-01-08T12:54:55.929Z,3.10
2023-01-08T12:55:55.931Z,3.10
2023-01-08T12:56:55.912Z,3.80
2023-01-08T12:57:55.965Z,4.20
2023-01-08T12:58:55.928Z,3.40
2023-01-08T12:59:55.879Z,3.20
2023-01-08T13:00:55.864Z,3.50
2023-01-08T13:01:56.065Z,4.50
2023-01-08T13:02:55.887Z,3.80
2023-01-08T13:03:55.872Z,4.20
2023-01-08T13:04:55.838Z,2.80